sensor_id;sensor_type;location;lat;lon;timestamp;temperature;humidity
24207;DHT22;12351;52.284;9.160;2023-08-06T00:02:36;16.90;99.90
24207;DHT22;12351;52.284;9.160;2023-08-06T00:05:24;16.90;99.90
24207;DHT22;12351;52.284;9.160;2023-08-06T00:08:15;16.90;99.90
24207;DHT22;12351;52.284;9.160;2023-08-06T00:11:03;16.90;99.90
24207;DHT22;12351;52.284;9.160;2023-08-06T00:13:54;16.90;99.90
24207;DHT22;12351;52.284;9.160;2023-08-06T00:16:44;16.90;99.90
24207;DHT22;12351;52.284;9.160;2023-08-06T00:19:34;16.90;99.90
24207;DHT22;12351;52.284;9.160;2023-08-06T00:22:24;16.90;99.90
24207;DHT22;12351;52.284;9.160;2023-08-06T00:25:16;16.90;99.90
24207;DHT22;12351;52.284;9.160;2023-08-06T00:28:05;16.80;99.90
24207;DHT22;12351;52.284;9.160;2023-08-06T00:30:55;16.80;99.90
24207;DHT22;12351;52.284;9.160;2023-08-06T00:33:47;16.80;99.90
24207;DHT22;12351;52.284;9.160;2023-08-06T00:36:37;16.80;99.90
24207;DHT22;12351;52.284;9.160;2023-08-06T00:39:27;16.80;99.90
24207;DHT22;12351;52.284;9.160;2023-08-06T00:42:18;16.70;99.90
24207;DHT22;12351;52.284;9.160;2023-08-06T00:45:10;16.70;99.90
24207;DHT22;12351;52.284;9.160;2023-08-06T00:48:02;16.70;99.90
24207;DHT22;12351;52.284;9.160;2023-08-06T00:50:55;16.70;99.90
24207;DHT22;12351;52.284;9.160;2023-08-06T00:53:45;16.60;99.90
24207;DHT22;12351;52.284;9.160;2023-08-06T00:56:36;16.60;99.90
24207;DHT22;12351;52.284;9.160;2023-08-06T00:59:28;16.60;99.90
24207;DHT22;12351;52.284;9.160;2023-08-06T01:02:19;16.50;99.90
24207;DHT22;12351;52.284;9.160;2023-08-06T01:05:10;16.50;99.90
24207;DHT22;12351;52.284;9.160;2023-08-06T01:10:53;16.40;99.90
24207;DHT22;12351;52.284;9.160;2023-08-06T01:13:44;16.50;99.90
24207;DHT22;12351;52.284;9.160;2023-08-06T01:16:33;16.50;99.90
24207;DHT22;12351;52.284;9.160;2023-08-06T01:19:24;16.50;99.90
24207;DHT22;12351;52.284;9.160;2023-08-06T01:22:15;16.50;99.90
24207;DHT22;12351;52.284;9.160;2023-08-06T01:25:04;16.50;99.90
24207;DHT22;12351;52.284;9.160;2023-08-06T01:27:52;16.50;99.90
24207;DHT22;12351;52.284;9.160;2023-08-06T01:30:42;16.50;99.90
24207;DHT22;12351;52.284;9.160;2023-08-06T01:33:34;16.50;99.90
24207;DHT22;12351;52.284;9.160;2023-08-06T01:39:15;16.50;99.90
24207;DHT22;12351;52.284;9.160;2023-08-06T01:42:06;16.50;99.90
24207;DHT22;12351;52.284;9.160;2023-08-06T01:45:00;16.60;99.90
24207;DHT22;12351;52.284;9.160;2023-08-06T01:47:51;16.60;99.90
24207;DHT22;12351;52.284;9.160;2023-08-06T01:50:41;16.60;99.90
24207;DHT22;12351;52.284;9.160;2023-08-06T01:53:30;16.60;99.90
24207;DHT22;12351;52.284;9.160;2023-08-06T01:56:22;16.60;99.90
24207;DHT22;12351;52.284;9.160;2023-08-06T01:59:09;16.60;99.90
24207;DHT22;12351;52.284;9.160;2023-08-06T02:01:57;16.50;99.90
24207;DHT22;12351;52.284;9.160;2023-08-06T02:19:03;16.60;99.90
24207;DHT22;12351;52.284;9.160;2023-08-06T02:21:54;16.60;99.90
24207;DHT22;12351;52.284;9.160;2023-08-06T02:24:45;16.60;99.90
24207;DHT22;12351;52.284;9.160;2023-08-06T02:27:34;16.50;99.90
24207;DHT22;12351;52.284;9.160;2023-08-06T02:30:25;16.50;99.90
24207;DHT22;12351;52.284;9.160;2023-08-06T02:33:14;16.60;99.90
24207;DHT22;12351;52.284;9.160;2023-08-06T02:36:04;16.50;99.90
24207;DHT22;12351;52.284;9.160;2023-08-06T02:38:54;16.50;99.90
24207;DHT22;12351;52.284;9.160;2023-08-06T02:41:46;16.50;99.90
24207;DHT22;12351;52.284;9.160;2023-08-06T02:44:37;16.50;99.90
24207;DHT22;12351;52.284;9.160;2023-08-06T02:47:27;16.50;99.90
24207;DHT22;12351;52.284;9.160;2023-08-06T02:50:19;16.50;99.90
24207;DHT22;12351;52.284;9.160;2023-08-06T02:53:09;16.50;99.90
24207;DHT22;12351;52.284;9.160;2023-08-06T02:56:00;16.40;99.90
24207;DHT22;12351;52.284;9.160;2023-08-06T02:58:52;16.40;99.90
24207;DHT22;12351;52.284;9.160;2023-08-06T03:01:44;16.40;99.90
24207;DHT22;12351;52.284;9.160;2023-08-06T03:04:33;16.30;99.90
24207;DHT22;12351;52.284;9.160;2023-08-06T03:07:25;16.40;99.90
24207;DHT22;12351;52.284;9.160;2023-08-06T03:10:14;16.40;99.90
24207;DHT22;12351;52.284;9.160;2023-08-06T03:13:04;16.30;99.90
24207;DHT22;12351;52.284;9.160;2023-08-06T03:15:56;16.40;99.90
24207;DHT22;12351;52.284;9.160;2023-08-06T03:18:45;16.30;99.90
24207;DHT22;12351;52.284;9.160;2023-08-06T03:21:35;16.30;99.90
24207;DHT22;12351;52.284;9.160;2023-08-06T03:24:29;16.30;99.90
24207;DHT22;12351;52.284;9.160;2023-08-06T03:27:22;16.30;99.90
24207;DHT22;12351;52.284;9.160;2023-08-06T03:30:11;16.30;99.90
24207;DHT22;12351;52.284;9.160;2023-08-06T03:33:01;16.30;99.90
24207;DHT22;12351;52.284;9.160;2023-08-06T03:35:51;16.30;99.90
24207;DHT22;12351;52.284;9.160;2023-08-06T03:38:42;16.30;99.90
24207;DHT22;12351;52.284;9.160;2023-08-06T03:41:33;16.30;99.90
24207;DHT22;12351;52.284;9.160;2023-08-06T03:44:23;16.30;99.90
24207;DHT22;12351;52.284;9.160;2023-08-06T03:47:15;16.30;99.90
24207;DHT22;12351;52.284;9.160;2023-08-06T03:50:04;16.20;99.90
24207;DHT22;12351;52.284;9.160;2023-08-06T03:52:56;16.30;99.90
24207;DHT22;12351;52.284;9.160;2023-08-06T03:55:44;16.20;99.90
24207;DHT22;12351;52.284;9.160;2023-08-06T03:58:36;16.20;99.90
24207;DHT22;12351;52.284;9.160;2023-08-06T04:01:24;16.10;99.90
24207;DHT22;12351;52.284;9.160;2023-08-06T04:04:17;16.20;99.90
24207;DHT22;12351;52.284;9.160;2023-08-06T04:07:07;16.20;99.90
24207;DHT22;12351;52.284;9.160;2023-08-06T04:09:59;16.20;99.90
24207;DHT22;12351;52.284;9.160;2023-08-06T04:12:45;16.20;99.90
24207;DHT22;12351;52.284;9.160;2023-08-06T04:15:36;16.10;99.90
24207;DHT22;12351;52.284;9.160;2023-08-06T04:18:25;16.10;99.90
24207;DHT22;12351;52.284;9.160;2023-08-06T04:21:18;16.20;99.90
24207;DHT22;12351;52.284;9.160;2023-08-06T04:24:06;16.10;99.90
24207;DHT22;12351;52.284;9.160;2023-08-06T04:26:57;16.10;99.90
24207;DHT22;12351;52.284;9.160;2023-08-06T04:29:49;16.20;99.90
24207;DHT22;12351;52.284;9.160;2023-08-06T04:32:41;16.20;99.90
24207;DHT22;12351;52.284;9.160;2023-08-06T04:35:34;16.10;99.90
24207;DHT22;12351;52.284;9.160;2023-08-06T04:38:24;16.10;99.90
24207;DHT22;12351;52.284;9.160;2023-08-06T04:41:13;16.10;99.90
24207;DHT22;12351;52.284;9.160;2023-08-06T04:44:03;16.10;99.90
24207;DHT22;12351;52.284;9.160;2023-08-06T04:46:53;16.10;99.90
24207;DHT22;12351;52.284;9.160;2023-08-06T04:49:43;16.10;99.90
24207;DHT22;12351;52.284;9.160;2023-08-06T04:52:34;16.00;99.90
24207;DHT22;12351;52.284;9.160;2023-08-06T04:55:26;16.10;99.90
24207;DHT22;12351;52.284;9.160;2023-08-06T04:58:14;16.10;99.90
24207;DHT22;12351;52.284;9.160;2023-08-06T05:01:05;16.10;99.90
24207;DHT22;12351;52.284;9.160;2023-08-06T05:03:54;16.10;99.90
24207;DHT22;12351;52.284;9.160;2023-08-06T05:06:46;16.10;99.90
24207;DHT22;12351;52.284;9.160;2023-08-06T05:09:34;16.10;99.90
24207;DHT22;12351;52.284;9.160;2023-08-06T05:12:24;16.20;99.90
24207;DHT22;12351;52.284;9.160;2023-08-06T05:15:15;16.20;99.90
24207;DHT22;12351;52.284;9.160;2023-08-06T05:18:04;16.10;99.90
24207;DHT22;12351;52.284;9.160;2023-08-06T05:20:54;16.10;99.90
24207;DHT22;12351;52.284;9.160;2023-08-06T05:23:43;16.10;99.90
24207;DHT22;12351;52.284;9.160;2023-08-06T05:26:34;16.20;99.90
24207;DHT22;12351;52.284;9.160;2023-08-06T05:29:24;16.20;99.90
24207;DHT22;12351;52.284;9.160;2023-08-06T05:32:14;16.20;99.90
24207;DHT22;12351;52.284;9.160;2023-08-06T05:35:01;16.20;99.90
24207;DHT22;12351;52.284;9.160;2023-08-06T05:37:52;16.30;99.90
24207;DHT22;12351;52.284;9.160;2023-08-06T05:40:40;16.20;99.90
24207;DHT22;12351;52.284;9.160;2023-08-06T05:43:31;16.20;99.90
24207;DHT22;12351;52.284;9.160;2023-08-06T05:46:23;16.30;99.90
24207;DHT22;12351;52.284;9.160;2023-08-06T05:49:11;16.30;99.90
24207;DHT22;12351;52.284;9.160;2023-08-06T05:52:02;16.40;99.90
24207;DHT22;12351;52.284;9.160;2023-08-06T05:54:53;16.40;99.90
24207;DHT22;12351;52.284;9.160;2023-08-06T05:57:43;16.50;99.90
24207;DHT22;12351;52.284;9.160;2023-08-06T06:00:31;16.50;99.90
24207;DHT22;12351;52.284;9.160;2023-08-06T06:03:24;16.60;99.90
24207;DHT22;12351;52.284;9.160;2023-08-06T06:06:12;16.60;99.90
24207;DHT22;12351;52.284;9.160;2023-08-06T06:09:03;16.60;99.90
24207;DHT22;12351;52.284;9.160;2023-08-06T06:11:54;16.60;99.90
24207;DHT22;12351;52.284;9.160;2023-08-06T06:14:42;16.70;99.90
24207;DHT22;12351;52.284;9.160;2023-08-06T06:17:34;16.80;99.90
24207;DHT22;12351;52.284;9.160;2023-08-06T06:20:22;17.00;99.90
24207;DHT22;12351;52.284;9.160;2023-08-06T06:23:12;17.00;99.90
24207;DHT22;12351;52.284;9.160;2023-08-06T06:26:02;17.00;99.90
24207;DHT22;12351;52.284;9.160;2023-08-06T06:28:53;17.00;99.90
24207;DHT22;12351;52.284;9.160;2023-08-06T06:31:43;17.00;99.90
24207;DHT22;12351;52.284;9.160;2023-08-06T06:34:33;17.10;99.90
24207;DHT22;12351;52.284;9.160;2023-08-06T06:37:24;17.10;99.90
24207;DHT22;12351;52.284;9.160;2023-08-06T06:40:13;17.10;99.90
24207;DHT22;12351;52.284;9.160;2023-08-06T06:43:03;17.10;99.90
24207;DHT22;12351;52.284;9.160;2023-08-06T06:45:55;17.30;99.90
24207;DHT22;12351;52.284;9.160;2023-08-06T06:48:44;17.20;99.90
24207;DHT22;12351;52.284;9.160;2023-08-06T06:51:35;17.30;99.90
24207;DHT22;12351;52.284;9.160;2023-08-06T06:54:22;17.40;99.90
24207;DHT22;12351;52.284;9.160;2023-08-06T06:57:15;17.40;99.90
24207;DHT22;12351;52.284;9.160;2023-08-06T07:00:06;17.50;99.90
24207;DHT22;12351;52.284;9.160;2023-08-06T07:02:57;17.50;99.90
24207;DHT22;12351;52.284;9.160;2023-08-06T07:05:46;17.50;99.90
24207;DHT22;12351;52.284;9.160;2023-08-06T07:08:37;17.60;99.90
24207;DHT22;12351;52.284;9.160;2023-08-06T07:11:28;17.70;99.90
24207;DHT22;12351;52.284;9.160;2023-08-06T07:14:16;17.70;99.90
24207;DHT22;12351;52.284;9.160;2023-08-06T07:17:07;17.70;99.90
24207;DHT22;12351;52.284;9.160;2023-08-06T07:20:00;17.70;99.90
24207;DHT22;12351;52.284;9.160;2023-08-06T07:22:49;17.80;99.90
24207;DHT22;12351;52.284;9.160;2023-08-06T07:25:40;17.80;99.90
24207;DHT22;12351;52.284;9.160;2023-08-06T07:28:32;17.70;99.90
24207;DHT22;12351;52.284;9.160;2023-08-06T07:31:21;17.80;99.90
24207;DHT22;12351;52.284;9.160;2023-08-06T07:34:13;17.90;99.90
24207;DHT22;12351;52.284;9.160;2023-08-06T07:37:06;18.00;99.90
24207;DHT22;12351;52.284;9.160;2023-08-06T07:39:56;18.00;99.90
24207;DHT22;12351;52.284;9.160;2023-08-06T07:42:47;18.00;99.90
24207;DHT22;12351;52.284;9.160;2023-08-06T07:45:38;18.10;99.90
24207;DHT22;12351;52.284;9.160;2023-08-06T07:48:31;18.20;99.90
24207;DHT22;12351;52.284;9.160;2023-08-06T07:51:21;18.20;99.90
24207;DHT22;12351;52.284;9.160;2023-08-06T07:54:12;18.20;99.90
24207;DHT22;12351;52.284;9.160;2023-08-06T07:57:01;18.30;99.90
24207;DHT22;12351;52.284;9.160;2023-08-06T07:59:53;18.40;99.90
24207;DHT22;12351;52.284;9.160;2023-08-06T08:02:45;18.50;99.90
24207;DHT22;12351;52.284;9.160;2023-08-06T08:05:34;18.50;99.90
24207;DHT22;12351;52.284;9.160;2023-08-06T08:08:24;18.40;99.90
24207;DHT22;12351;52.284;9.160;2023-08-06T08:11:15;18.40;99.90
24207;DHT22;12351;52.284;9.160;2023-08-06T08:14:05;18.50;99.90
24207;DHT22;12351;52.284;9.160;2023-08-06T08:16:57;18.50;99.90
24207;DHT22;12351;52.284;9.160;2023-08-06T08:19:48;18.60;99.90
24207;DHT22;12351;52.284;9.160;2023-08-06T08:22:40;18.60;99.90
24207;DHT22;12351;52.284;9.160;2023-08-06T08:25:28;18.60;99.90
24207;DHT22;12351;52.284;9.160;2023-08-06T08:28:17;18.70;99.90
24207;DHT22;12351;52.284;9.160;2023-08-06T08:31:13;18.80;99.90
24207;DHT22;12351;52.284;9.160;2023-08-06T08:34:03;18.80;99.90
24207;DHT22;12351;52.284;9.160;2023-08-06T08:36:53;18.90;99.90
24207;DHT22;12351;52.284;9.160;2023-08-06T08:39:45;18.90;99.90
24207;DHT22;12351;52.284;9.160;2023-08-06T08:42:37;19.00;99.90
24207;DHT22;12351;52.284;9.160;2023-08-06T08:45:27;19.10;99.90
24207;DHT22;12351;52.284;9.160;2023-08-06T08:48:15;19.20;99.90
24207;DHT22;12351;52.284;9.160;2023-08-06T08:51:08;19.30;99.90
24207;DHT22;12351;52.284;9.160;2023-08-06T08:53:58;19.30;99.90
24207;DHT22;12351;52.284;9.160;2023-08-06T08:56:49;19.20;99.90
24207;DHT22;12351;52.284;9.160;2023-08-06T08:59:39;19.20;99.90
24207;DHT22;12351;52.284;9.160;2023-08-06T09:02:31;19.30;99.90
24207;DHT22;12351;52.284;9.160;2023-08-06T09:05:22;19.30;99.90
24207;DHT22;12351;52.284;9.160;2023-08-06T09:08:11;19.30;99.90
24207;DHT22;12351;52.284;9.160;2023-08-06T09:11:01;19.40;99.90
24207;DHT22;12351;52.284;9.160;2023-08-06T09:13:53;19.40;99.90
24207;DHT22;12351;52.284;9.160;2023-08-06T09:16:43;19.30;99.90
24207;DHT22;12351;52.284;9.160;2023-08-06T09:19:36;19.20;99.90
24207;DHT22;12351;52.284;9.160;2023-08-06T09:22:24;19.20;99.90
24207;DHT22;12351;52.284;9.160;2023-08-06T09:28:08;19.30;99.90
24207;DHT22;12351;52.284;9.160;2023-08-06T09:30:57;19.20;99.90
24207;DHT22;12351;52.284;9.160;2023-08-06T09:33:50;19.30;99.90
24207;DHT22;12351;52.284;9.160;2023-08-06T09:36:41;19.30;99.90
24207;DHT22;12351;52.284;9.160;2023-08-06T09:39:30;19.20;99.90
24207;DHT22;12351;52.284;9.160;2023-08-06T09:42:22;19.40;99.90
24207;DHT22;12351;52.284;9.160;2023-08-06T09:45:10;19.60;99.90
24207;DHT22;12351;52.284;9.160;2023-08-06T09:50:49;19.40;99.90
24207;DHT22;12351;52.284;9.160;2023-08-06T09:53:40;19.40;99.90
24207;DHT22;12351;52.284;9.160;2023-08-06T09:56:29;19.30;99.90
24207;DHT22;12351;52.284;9.160;2023-08-06T09:59:21;19.20;99.90
24207;DHT22;12351;52.284;9.160;2023-08-06T10:02:12;19.30;99.90
24207;DHT22;12351;52.284;9.160;2023-08-06T10:05:00;19.30;99.90
24207;DHT22;12351;52.284;9.160;2023-08-06T10:07:51;19.40;99.90
24207;DHT22;12351;52.284;9.160;2023-08-06T10:10:41;19.40;99.90
24207;DHT22;12351;52.284;9.160;2023-08-06T10:13:28;19.40;99.90
24207;DHT22;12351;52.284;9.160;2023-08-06T10:16:15;19.50;99.90
24207;DHT22;12351;52.284;9.160;2023-08-06T10:19:03;19.50;99.90
24207;DHT22;12351;52.284;9.160;2023-08-06T10:27:32;19.40;99.90
24207;DHT22;12351;52.284;9.160;2023-08-06T10:30:24;19.40;99.90
24207;DHT22;12351;52.284;9.160;2023-08-06T10:33:11;19.50;99.90
24207;DHT22;12351;52.284;9.160;2023-08-06T10:36:01;19.60;99.90
24207;DHT22;12351;52.284;9.160;2023-08-06T10:38:51;19.60;99.90
24207;DHT22;12351;52.284;9.160;2023-08-06T10:41:42;19.60;99.90
24207;DHT22;12351;52.284;9.160;2023-08-06T10:44:30;19.60;99.90
24207;DHT22;12351;52.284;9.160;2023-08-06T10:50:10;19.60;99.90
24207;DHT22;12351;52.284;9.160;2023-08-06T10:52:56;19.70;99.90
24207;DHT22;12351;52.284;9.160;2023-08-06T10:55:43;19.50;99.90
24207;DHT22;12351;52.284;9.160;2023-08-06T10:58:32;19.50;99.90
24207;DHT22;12351;52.284;9.160;2023-08-06T11:01:18;19.40;99.90
24207;DHT22;12351;52.284;9.160;2023-08-06T11:04:05;19.40;99.90
24207;DHT22;12351;52.284;9.160;2023-08-06T11:06:53;19.60;99.90
24207;DHT22;12351;52.284;9.160;2023-08-06T11:09:40;19.70;99.90
24207;DHT22;12351;52.284;9.160;2023-08-06T11:12:27;19.70;99.90
24207;DHT22;12351;52.284;9.160;2023-08-06T11:15:14;19.80;99.90
24207;DHT22;12351;52.284;9.160;2023-08-06T11:18:04;19.90;99.90
24207;DHT22;12351;52.284;9.160;2023-08-06T11:20:53;20.00;99.90
24207;DHT22;12351;52.284;9.160;2023-08-06T11:23:46;20.00;99.90
24207;DHT22;12351;52.284;9.160;2023-08-06T11:26:33;20.00;99.90
24207;DHT22;12351;52.284;9.160;2023-08-06T11:29:24;19.90;99.90
24207;DHT22;12351;52.284;9.160;2023-08-06T11:32:17;20.00;99.90
24207;DHT22;12351;52.284;9.160;2023-08-06T11:37:57;20.20;99.90
24207;DHT22;12351;52.284;9.160;2023-08-06T11:40:44;20.30;99.90
24207;DHT22;12351;52.284;9.160;2023-08-06T11:43:37;20.30;99.90
24207;DHT22;12351;52.284;9.160;2023-08-06T11:46:28;20.40;99.90
24207;DHT22;12351;52.284;9.160;2023-08-06T11:49:15;20.40;99.90
24207;DHT22;12351;52.284;9.160;2023-08-06T11:57:49;20.40;99.90
24207;DHT22;12351;52.284;9.160;2023-08-06T12:00:38;20.50;99.90
24207;DHT22;12351;52.284;9.160;2023-08-06T12:03:29;20.60;99.90
24207;DHT22;12351;52.284;9.160;2023-08-06T12:06:19;20.70;99.90
24207;DHT22;12351;52.284;9.160;2023-08-06T12:09:12;20.50;99.90
24207;DHT22;12351;52.284;9.160;2023-08-06T12:12:03;20.60;99.90
24207;DHT22;12351;52.284;9.160;2023-08-06T12:14:50;20.70;99.90
24207;DHT22;12351;52.284;9.160;2023-08-06T12:17:41;20.80;99.90
24207;DHT22;12351;52.284;9.160;2023-08-06T12:20:30;20.70;99.90
24207;DHT22;12351;52.284;9.160;2023-08-06T12:23:21;20.80;99.90
24207;DHT22;12351;52.284;9.160;2023-08-06T12:26:11;21.00;99.90
24207;DHT22;12351;52.284;9.160;2023-08-06T12:29:01;21.00;99.90
24207;DHT22;12351;52.284;9.160;2023-08-06T12:31:47;21.10;99.90
24207;DHT22;12351;52.284;9.160;2023-08-06T12:34:40;21.10;99.90
24207;DHT22;12351;52.284;9.160;2023-08-06T12:37:30;21.30;99.90
24207;DHT22;12351;52.284;9.160;2023-08-06T12:40:23;21.80;99.90
24207;DHT22;12351;52.284;9.160;2023-08-06T12:43:13;22.00;99.90
24207;DHT22;12351;52.284;9.160;2023-08-06T12:46:04;21.70;99.90
24207;DHT22;12351;52.284;9.160;2023-08-06T12:48:54;21.70;99.90
24207;DHT22;12351;52.284;9.160;2023-08-06T12:51:43;21.60;99.90
24207;DHT22;12351;52.284;9.160;2023-08-06T12:54:32;21.60;99.90
24207;DHT22;12351;52.284;9.160;2023-08-06T12:57:23;21.50;99.90
24207;DHT22;12351;52.284;9.160;2023-08-06T13:00:11;21.60;99.90
24207;DHT22;12351;52.284;9.160;2023-08-06T13:03:02;21.60;99.90
24207;DHT22;12351;52.284;9.160;2023-08-06T13:05:53;21.70;99.90
24207;DHT22;12351;52.284;9.160;2023-08-06T13:08:45;21.80;99.90
24207;DHT22;12351;52.284;9.160;2023-08-06T13:11:36;21.90;99.90
24207;DHT22;12351;52.284;9.160;2023-08-06T13:14:27;21.70;99.90
24207;DHT22;12351;52.284;9.160;2023-08-06T13:17:16;21.80;99.90
24207;DHT22;12351;52.284;9.160;2023-08-06T13:20:06;21.90;99.90
24207;DHT22;12351;52.284;9.160;2023-08-06T13:22:57;22.00;99.90
24207;DHT22;12351;52.284;9.160;2023-08-06T13:25:48;22.00;99.90
24207;DHT22;12351;52.284;9.160;2023-08-06T13:28:40;21.70;99.90
24207;DHT22;12351;52.284;9.160;2023-08-06T13:31:29;21.80;99.90
24207;DHT22;12351;52.284;9.160;2023-08-06T13:34:19;21.70;99.90
24207;DHT22;12351;52.284;9.160;2023-08-06T13:37:09;21.70;99.90
24207;DHT22;12351;52.284;9.160;2023-08-06T13:39:58;21.60;99.90
24207;DHT22;12351;52.284;9.160;2023-08-06T13:42:48;21.70;99.90
24207;DHT22;12351;52.284;9.160;2023-08-06T13:45:38;21.80;99.90
24207;DHT22;12351;52.284;9.160;2023-08-06T13:48:28;21.80;99.90
24207;DHT22;12351;52.284;9.160;2023-08-06T13:51:21;21.80;99.90
24207;DHT22;12351;52.284;9.160;2023-08-06T13:54:12;21.80;99.90
24207;DHT22;12351;52.284;9.160;2023-08-06T13:57:02;21.70;99.90
24207;DHT22;12351;52.284;9.160;2023-08-06T13:59:51;21.60;99.90
24207;DHT22;12351;52.284;9.160;2023-08-06T14:02:40;21.80;99.90
24207;DHT22;12351;52.284;9.160;2023-08-06T14:05:31;21.80;99.90
24207;DHT22;12351;52.284;9.160;2023-08-06T14:08:22;21.80;99.90
24207;DHT22;12351;52.284;9.160;2023-08-06T14:11:13;21.90;99.90
24207;DHT22;12351;52.284;9.160;2023-08-06T14:14:02;21.80;99.90
24207;DHT22;12351;52.284;9.160;2023-08-06T14:16:53;21.90;99.90
24207;DHT22;12351;52.284;9.160;2023-08-06T14:19:41;22.00;99.90
24207;DHT22;12351;52.284;9.160;2023-08-06T14:22:32;22.00;99.90
24207;DHT22;12351;52.284;9.160;2023-08-06T14:25:26;22.20;99.90
24207;DHT22;12351;52.284;9.160;2023-08-06T14:28:17;22.30;99.90
24207;DHT22;12351;52.284;9.160;2023-08-06T14:31:06;22.30;99.90
24207;DHT22;12351;52.284;9.160;2023-08-06T14:33:57;22.10;99.90
24207;DHT22;12351;52.284;9.160;2023-08-06T14:36:48;22.00;99.90
24207;DHT22;12351;52.284;9.160;2023-08-06T14:39:36;22.20;99.90
24207;DHT22;12351;52.284;9.160;2023-08-06T14:42:25;22.10;99.90
24207;DHT22;12351;52.284;9.160;2023-08-06T14:45:15;22.10;99.90
24207;DHT22;12351;52.284;9.160;2023-08-06T14:48:03;22.20;99.90
24207;DHT22;12351;52.284;9.160;2023-08-06T14:50:54;22.30;99.90
24207;DHT22;12351;52.284;9.160;2023-08-06T14:53:46;22.30;99.90
24207;DHT22;12351;52.284;9.160;2023-08-06T14:56:34;22.40;99.90
24207;DHT22;12351;52.284;9.160;2023-08-06T14:59:25;22.50;99.90
24207;DHT22;12351;52.284;9.160;2023-08-06T15:02:16;22.40;99.90
24207;DHT22;12351;52.284;9.160;2023-08-06T15:05:04;22.50;99.90
24207;DHT22;12351;52.284;9.160;2023-08-06T15:07:56;22.30;99.90
24207;DHT22;12351;52.284;9.160;2023-08-06T15:13:36;22.60;99.90
24207;DHT22;12351;52.284;9.160;2023-08-06T15:16:26;22.60;99.90
24207;DHT22;12351;52.284;9.160;2023-08-06T15:19:16;22.50;99.90
24207;DHT22;12351;52.284;9.160;2023-08-06T15:22:06;22.70;99.90
24207;DHT22;12351;52.284;9.160;2023-08-06T15:24:56;22.70;99.90
24207;DHT22;12351;52.284;9.160;2023-08-06T15:27:45;22.80;99.90
24207;DHT22;12351;52.284;9.160;2023-08-06T15:30:34;22.90;99.90
24207;DHT22;12351;52.284;9.160;2023-08-06T15:33:25;23.00;99.90
24207;DHT22;12351;52.284;9.160;2023-08-06T15:36:15;23.00;99.90
24207;DHT22;12351;52.284;9.160;2023-08-06T15:39:08;22.90;99.90
24207;DHT22;12351;52.284;9.160;2023-08-06T15:41:59;22.90;99.90
24207;DHT22;12351;52.284;9.160;2023-08-06T15:44:53;22.90;99.90
24207;DHT22;12351;52.284;9.160;2023-08-06T15:47:42;22.90;99.90
24207;DHT22;12351;52.284;9.160;2023-08-06T15:50:31;22.90;99.90
24207;DHT22;12351;52.284;9.160;2023-08-06T15:53:24;22.90;99.90
24207;DHT22;12351;52.284;9.160;2023-08-06T15:56:14;22.90;99.90
24207;DHT22;12351;52.284;9.160;2023-08-06T15:59:34;22.90;99.90
24207;DHT22;12351;52.284;9.160;2023-08-06T16:01:55;23.00;99.90
24207;DHT22;12351;52.284;9.160;2023-08-06T16:04:45;23.00;99.90
24207;DHT22;12351;52.284;9.160;2023-08-06T16:07:31;23.00;99.90
24207;DHT22;12351;52.284;9.160;2023-08-06T16:10:21;23.10;99.90
24207;DHT22;12351;52.284;9.160;2023-08-06T16:13:14;23.00;99.90
24207;DHT22;12351;52.284;9.160;2023-08-06T16:16:04;23.00;99.90
24207;DHT22;12351;52.284;9.160;2023-08-06T16:18:56;23.00;99.90
24207;DHT22;12351;52.284;9.160;2023-08-06T16:21:43;23.00;99.90
24207;DHT22;12351;52.284;9.160;2023-08-06T16:24:34;22.90;99.90
24207;DHT22;12351;52.284;9.160;2023-08-06T16:27:27;22.90;99.90
24207;DHT22;12351;52.284;9.160;2023-08-06T16:30:19;22.80;99.90
24207;DHT22;12351;52.284;9.160;2023-08-06T16:33:10;22.70;99.90
24207;DHT22;12351;52.284;9.160;2023-08-06T16:35:59;22.50;99.90
24207;DHT22;12351;52.284;9.160;2023-08-06T16:38:52;22.40;99.90
24207;DHT22;12351;52.284;9.160;2023-08-06T16:41:41;22.30;99.90
24207;DHT22;12351;52.284;9.160;2023-08-06T16:44:31;22.20;99.90
24207;DHT22;12351;52.284;9.160;2023-08-06T16:47:21;22.10;99.90
24207;DHT22;12351;52.284;9.160;2023-08-06T16:50:12;22.00;99.90
24207;DHT22;12351;52.284;9.160;2023-08-06T16:53:03;21.90;99.90
24207;DHT22;12351;52.284;9.160;2023-08-06T16:55:50;21.90;99.90
24207;DHT22;12351;52.284;9.160;2023-08-06T16:58:41;21.80;99.90
24207;DHT22;12351;52.284;9.160;2023-08-06T17:01:32;21.70;99.90
24207;DHT22;12351;52.284;9.160;2023-08-06T17:04:18;21.50;99.90
24207;DHT22;12351;52.284;9.160;2023-08-06T17:07:11;21.50;99.90
24207;DHT22;12351;52.284;9.160;2023-08-06T17:10:00;21.40;99.90
24207;DHT22;12351;52.284;9.160;2023-08-06T17:12:51;21.30;99.90
24207;DHT22;12351;52.284;9.160;2023-08-06T17:15:41;21.30;99.90
24207;DHT22;12351;52.284;9.160;2023-08-06T17:18:33;21.20;99.90
24207;DHT22;12351;52.284;9.160;2023-08-06T17:21:21;21.10;99.90
24207;DHT22;12351;52.284;9.160;2023-08-06T17:24:16;21.10;99.90
24207;DHT22;12351;52.284;9.160;2023-08-06T17:27:05;21.00;99.90
24207;DHT22;12351;52.284;9.160;2023-08-06T17:29:57;21.00;99.90
24207;DHT22;12351;52.284;9.160;2023-08-06T17:32:47;20.90;99.90
24207;DHT22;12351;52.284;9.160;2023-08-06T17:35:40;20.80;99.90
24207;DHT22;12351;52.284;9.160;2023-08-06T17:38:30;20.80;99.90
24207;DHT22;12351;52.284;9.160;2023-08-06T17:41:20;20.70;99.90
24207;DHT22;12351;52.284;9.160;2023-08-06T17:44:09;20.70;99.90
24207;DHT22;12351;52.284;9.160;2023-08-06T17:47:00;20.60;99.90
24207;DHT22;12351;52.284;9.160;2023-08-06T17:49:49;20.50;99.90
24207;DHT22;12351;52.284;9.160;2023-08-06T17:52:39;20.40;99.90
24207;DHT22;12351;52.284;9.160;2023-08-06T17:55:32;20.40;99.90
24207;DHT22;12351;52.284;9.160;2023-08-06T17:58:20;20.30;99.90
24207;DHT22;12351;52.284;9.160;2023-08-06T18:01:08;20.10;99.90
24207;DHT22;12351;52.284;9.160;2023-08-06T18:03:57;20.00;99.90
24207;DHT22;12351;52.284;9.160;2023-08-06T18:06:47;19.90;99.90
24207;DHT22;12351;52.284;9.160;2023-08-06T18:09:36;19.80;99.90
24207;DHT22;12351;52.284;9.160;2023-08-06T18:12:26;19.70;99.90
24207;DHT22;12351;52.284;9.160;2023-08-06T18:15:15;19.60;99.90
24207;DHT22;12351;52.284;9.160;2023-08-06T18:18:06;19.60;99.90
24207;DHT22;12351;52.284;9.160;2023-08-06T18:20:58;19.50;99.90
24207;DHT22;12351;52.284;9.160;2023-08-06T18:23:46;19.30;99.90
24207;DHT22;12351;52.284;9.160;2023-08-06T18:26:39;19.30;99.90
24207;DHT22;12351;52.284;9.160;2023-08-06T18:29:30;19.20;99.90
24207;DHT22;12351;52.284;9.160;2023-08-06T18:32:21;19.10;99.90
24207;DHT22;12351;52.284;9.160;2023-08-06T18:35:09;19.10;99.90
24207;DHT22;12351;52.284;9.160;2023-08-06T18:38:00;19.20;99.90
24207;DHT22;12351;52.284;9.160;2023-08-06T18:40:54;19.00;99.90